sensor_id;sensor_type;location;lat;lon;timestamp;temperature;humidity
17774;DHT22;9011;33.236;-97.118;2023-05-07T00:01:50;29.30;99.90
17774;DHT22;9011;33.236;-97.118;2023-05-07T00:04:19;29.20;99.90
17774;DHT22;9011;33.236;-97.118;2023-05-07T00:06:48;29.30;99.90
17774;DHT22;9011;33.236;-97.118;2023-05-07T00:09:22;29.20;99.90
17774;DHT22;9011;33.236;-97.118;2023-05-07T00:11:51;29.00;99.90
17774;DHT22;9011;33.236;-97.118;2023-05-07T00:14:20;29.00;99.90
17774;DHT22;9011;33.236;-97.118;2023-05-07T00:16:48;28.90;99.90
17774;DHT22;9011;33.236;-97.118;2023-05-07T00:19:18;28.90;99.90
17774;DHT22;9011;33.236;-97.118;2023-05-07T00:22:03;28.90;99.90
17774;DHT22;9011;33.236;-97.118;2023-05-07T00:24:32;28.90;99.90
17774;DHT22;9011;33.236;-97.118;2023-05-07T00:27:01;28.90;99.90
17774;DHT22;9011;33.236;-97.118;2023-05-07T00:29:46;28.80;99.90
17774;DHT22;9011;33.236;-97.118;2023-05-07T00:32:14;28.80;99.90
17774;DHT22;9011;33.236;-97.118;2023-05-07T00:34:43;28.80;99.90
17774;DHT22;9011;33.236;-97.118;2023-05-07T00:37:12;28.80;99.90
17774;DHT22;9011;33.236;-97.118;2023-05-07T00:39:50;28.80;99.90
17774;DHT22;9011;33.236;-97.118;2023-05-07T00:42:19;28.70;99.90
17774;DHT22;9011;33.236;-97.118;2023-05-07T00:44:47;28.60;99.90
17774;DHT22;9011;33.236;-97.118;2023-05-07T00:47:20;28.50;99.90
17774;DHT22;9011;33.236;-97.118;2023-05-07T00:49:49;28.60;99.90
17774;DHT22;9011;33.236;-97.118;2023-05-07T00:52:18;28.50;99.90
17774;DHT22;9011;33.236;-97.118;2023-05-07T00:54:49;28.40;99.90
17774;DHT22;9011;33.236;-97.118;2023-05-07T00:57:18;28.40;99.90
17774;DHT22;9011;33.236;-97.118;2023-05-07T00:59:47;28.40;99.90
17774;DHT22;9011;33.236;-97.118;2023-05-07T01:02:17;28.30;99.90
17774;DHT22;9011;33.236;-97.118;2023-05-07T01:04:45;28.30;99.90
17774;DHT22;9011;33.236;-97.118;2023-05-07T01:07:14;28.30;99.90
17774;DHT22;9011;33.236;-97.118;2023-05-07T01:09:42;28.20;99.90
17774;DHT22;9011;33.236;-97.118;2023-05-07T01:12:13;28.20;99.90
17774;DHT22;9011;33.236;-97.118;2023-05-07T01:14:45;28.20;99.90
17774;DHT22;9011;33.236;-97.118;2023-05-07T01:17:15;28.20;99.90
17774;DHT22;9011;33.236;-97.118;2023-05-07T01:19:43;28.20;99.90
17774;DHT22;9011;33.236;-97.118;2023-05-07T01:22:13;28.20;99.90
17774;DHT22;9011;33.236;-97.118;2023-05-07T01:24:44;28.20;99.90
17774;DHT22;9011;33.236;-97.118;2023-05-07T01:27:13;28.20;99.90
17774;DHT22;9011;33.236;-97.118;2023-05-07T01:29:44;28.10;99.90
17774;DHT22;9011;33.236;-97.118;2023-05-07T01:32:14;28.20;99.90
17774;DHT22;9011;33.236;-97.118;2023-05-07T01:34:51;28.20;99.90
17774;DHT22;9011;33.236;-97.118;2023-05-07T01:37:21;28.20;99.90
17774;DHT22;9011;33.236;-97.118;2023-05-07T01:39:52;28.10;99.90
17774;DHT22;9011;33.236;-97.118;2023-05-07T01:42:22;28.10;99.90
17774;DHT22;9011;33.236;-97.118;2023-05-07T01:44:50;28.00;99.90
17774;DHT22;9011;33.236;-97.118;2023-05-07T01:47:19;27.90;99.90
17774;DHT22;9011;33.236;-97.118;2023-05-07T01:49:48;27.90;99.90
17774;DHT22;9011;33.236;-97.118;2023-05-07T01:52:19;27.90;99.90
17774;DHT22;9011;33.236;-97.118;2023-05-07T01:55:02;27.90;99.90
17774;DHT22;9011;33.236;-97.118;2023-05-07T01:57:40;27.90;99.90
17774;DHT22;9011;33.236;-97.118;2023-05-07T02:00:20;27.80;99.90
17774;DHT22;9011;33.236;-97.118;2023-05-07T02:03:02;27.80;99.90
17774;DHT22;9011;33.236;-97.118;2023-05-07T02:09:32;27.70;99.90
17774;DHT22;9011;33.236;-97.118;2023-05-07T02:12:13;27.70;99.90
17774;DHT22;9011;33.236;-97.118;2023-05-07T02:15:00;27.70;99.90
17774;DHT22;9011;33.236;-97.118;2023-05-07T02:18:01;27.60;99.90
17774;DHT22;9011;33.236;-97.118;2023-05-07T02:20:30;27.70;99.90
17774;DHT22;9011;33.236;-97.118;2023-05-07T02:25:51;27.50;99.90
17774;DHT22;9011;33.236;-97.118;2023-05-07T02:28:21;27.60;99.90
17774;DHT22;9011;33.236;-97.118;2023-05-07T02:30:52;27.50;99.90
17774;DHT22;9011;33.236;-97.118;2023-05-07T02:33:21;27.40;99.90
17774;DHT22;9011;33.236;-97.118;2023-05-07T02:35:49;27.10;99.90
17774;DHT22;9011;33.236;-97.118;2023-05-07T02:38:20;26.70;99.90
17774;DHT22;9011;33.236;-97.118;2023-05-07T02:40:52;26.30;99.90
17774;DHT22;9011;33.236;-97.118;2023-05-07T02:43:22;26.20;99.90
17774;DHT22;9011;33.236;-97.118;2023-05-07T02:46:00;25.70;99.90
17774;DHT22;9011;33.236;-97.118;2023-05-07T02:48:29;25.70;99.90
17774;DHT22;9011;33.236;-97.118;2023-05-07T02:51:02;25.50;99.90
17774;DHT22;9011;33.236;-97.118;2023-05-07T02:53:31;25.10;99.90
17774;DHT22;9011;33.236;-97.118;2023-05-07T02:56:01;24.30;99.90
17774;DHT22;9011;33.236;-97.118;2023-05-07T02:58:34;23.80;99.90
17774;DHT22;9011;33.236;-97.118;2023-05-07T03:01:03;23.50;99.90
17774;DHT22;9011;33.236;-97.118;2023-05-07T03:03:31;22.90;99.90
17774;DHT22;9011;33.236;-97.118;2023-05-07T03:06:03;22.70;99.90
17774;DHT22;9011;33.236;-97.118;2023-05-07T03:08:31;22.30;99.90
17774;DHT22;9011;33.236;-97.118;2023-05-07T03:11:01;22.00;99.90
17774;DHT22;9011;33.236;-97.118;2023-05-07T03:13:31;21.70;99.90
17774;DHT22;9011;33.236;-97.118;2023-05-07T03:16:01;21.50;99.90
17774;DHT22;9011;33.236;-97.118;2023-05-07T03:18:30;21.30;99.90
17774;DHT22;9011;33.236;-97.118;2023-05-07T03:20:58;21.00;99.90
17774;DHT22;9011;33.236;-97.118;2023-05-07T03:23:27;21.00;99.90
17774;DHT22;9011;33.236;-97.118;2023-05-07T03:25:58;21.00;99.90
17774;DHT22;9011;33.236;-97.118;2023-05-07T03:28:26;20.90;99.90
17774;DHT22;9011;33.236;-97.118;2023-05-07T03:30:56;21.00;99.90
17774;DHT22;9011;33.236;-97.118;2023-05-07T03:33:25;20.80;99.90
17774;DHT22;9011;33.236;-97.118;2023-05-07T03:35:53;20.90;99.90
17774;DHT22;9011;33.236;-97.118;2023-05-07T03:38:22;20.80;99.90
17774;DHT22;9011;33.236;-97.118;2023-05-07T03:40:51;20.80;99.90
17774;DHT22;9011;33.236;-97.118;2023-05-07T03:43:22;20.60;99.90
17774;DHT22;9011;33.236;-97.118;2023-05-07T03:46:04;20.50;99.90
17774;DHT22;9011;33.236;-97.118;2023-05-07T03:48:33;20.60;99.90
17774;DHT22;9011;33.236;-97.118;2023-05-07T03:51:01;20.60;99.90
17774;DHT22;9011;33.236;-97.118;2023-05-07T03:53:35;20.60;99.90
17774;DHT22;9011;33.236;-97.118;2023-05-07T03:56:07;20.60;99.90
17774;DHT22;9011;33.236;-97.118;2023-05-07T03:58:35;20.50;99.90
17774;DHT22;9011;33.236;-97.118;2023-05-07T04:01:05;20.50;99.90
17774;DHT22;9011;33.236;-97.118;2023-05-07T04:03:35;20.50;99.90
17774;DHT22;9011;33.236;-97.118;2023-05-07T04:06:06;20.30;99.90
17774;DHT22;9011;33.236;-97.118;2023-05-07T04:08:34;20.20;99.90
17774;DHT22;9011;33.236;-97.118;2023-05-07T04:11:06;20.10;99.90
17774;DHT22;9011;33.236;-97.118;2023-05-07T04:13:34;20.10;99.90
17774;DHT22;9011;33.236;-97.118;2023-05-07T04:16:04;19.90;99.90
17774;DHT22;9011;33.236;-97.118;2023-05-07T04:18:33;20.00;99.90
17774;DHT22;9011;33.236;-97.118;2023-05-07T04:21:04;20.00;99.90
17774;DHT22;9011;33.236;-97.118;2023-05-07T04:23:35;20.00;99.90
17774;DHT22;9011;33.236;-97.118;2023-05-07T04:26:03;19.90;99.90
17774;DHT22;9011;33.236;-97.118;2023-05-07T04:28:37;19.80;99.90
17774;DHT22;9011;33.236;-97.118;2023-05-07T04:31:09;19.70;99.90
17774;DHT22;9011;33.236;-97.118;2023-05-07T04:33:38;19.70;99.90
17774;DHT22;9011;33.236;-97.118;2023-05-07T04:36:09;19.70;99.90
17774;DHT22;9011;33.236;-97.118;2023-05-07T04:38:37;19.70;99.90
17774;DHT22;9011;33.236;-97.118;2023-05-07T04:41:06;19.70;99.90
17774;DHT22;9011;33.236;-97.118;2023-05-07T04:43:35;19.60;99.90
17774;DHT22;9011;33.236;-97.118;2023-05-07T04:46:03;19.60;99.90
17774;DHT22;9011;33.236;-97.118;2023-05-07T04:48:34;19.60;99.90
17774;DHT22;9011;33.236;-97.118;2023-05-07T04:51:02;19.50;99.90
17774;DHT22;9011;33.236;-97.118;2023-05-07T04:53:33;19.40;99.90
17774;DHT22;9011;33.236;-97.118;2023-05-07T04:56:04;19.20;99.90
17774;DHT22;9011;33.236;-97.118;2023-05-07T04:58:33;19.10;99.90
17774;DHT22;9011;33.236;-97.118;2023-05-07T05:01:13;19.20;99.90
17774;DHT22;9011;33.236;-97.118;2023-05-07T05:03:43;19.20;99.90
17774;DHT22;9011;33.236;-97.118;2023-05-07T05:06:12;19.30;99.90
17774;DHT22;9011;33.236;-97.118;2023-05-07T05:08:43;19.40;99.90
17774;DHT22;9011;33.236;-97.118;2023-05-07T05:11:11;19.40;99.90
17774;DHT22;9011;33.236;-97.118;2023-05-07T05:13:40;19.30;99.90
17774;DHT22;9011;33.236;-97.118;2023-05-07T05:16:08;19.30;99.90
17774;DHT22;9011;33.236;-97.118;2023-05-07T05:18:46;19.30;99.90
17774;DHT22;9011;33.236;-97.118;2023-05-07T05:21:24;19.20;99.90
17774;DHT22;9011;33.236;-97.118;2023-05-07T05:23:55;19.20;99.90
17774;DHT22;9011;33.236;-97.118;2023-05-07T05:27:35;19.30;99.90
17774;DHT22;9011;33.236;-97.118;2023-05-07T05:29:22;19.30;99.90
17774;DHT22;9011;33.236;-97.118;2023-05-07T05:31:57;19.40;99.90
17774;DHT22;9011;33.236;-97.118;2023-05-07T05:35:04;19.20;99.90
17774;DHT22;9011;33.236;-97.118;2023-05-07T05:37:50;19.00;99.90
17774;DHT22;9011;33.236;-97.118;2023-05-07T05:40:34;19.00;99.90
17774;DHT22;9011;33.236;-97.118;2023-05-07T05:43:02;19.20;99.90
17774;DHT22;9011;33.236;-97.118;2023-05-07T05:45:36;19.40;99.90
17774;DHT22;9011;33.236;-97.118;2023-05-07T05:48:07;19.60;99.90
17774;DHT22;9011;33.236;-97.118;2023-05-07T05:50:48;19.70;99.90
17774;DHT22;9011;33.236;-97.118;2023-05-07T05:53:41;19.80;99.90
17774;DHT22;9011;33.236;-97.118;2023-05-07T05:56:19;19.80;99.90
17774;DHT22;9011;33.236;-97.118;2023-05-07T05:58:56;19.90;99.90
17774;DHT22;9011;33.236;-97.118;2023-05-07T06:01:24;19.90;99.90
17774;DHT22;9011;33.236;-97.118;2023-05-07T06:04:12;19.90;99.90
17774;DHT22;9011;33.236;-97.118;2023-05-07T06:07:01;19.90;99.90
17774;DHT22;9011;33.236;-97.118;2023-05-07T06:10:10;20.00;99.90
17774;DHT22;9011;33.236;-97.118;2023-05-07T06:12:39;19.90;99.90
17774;DHT22;9011;33.236;-97.118;2023-05-07T06:15:13;19.90;99.90
17774;DHT22;9011;33.236;-97.118;2023-05-07T06:17:58;19.80;99.90
17774;DHT22;9011;33.236;-97.118;2023-05-07T06:20:32;19.90;99.90
17774;DHT22;9011;33.236;-97.118;2023-05-07T06:23:47;20.00;99.90
17774;DHT22;9011;33.236;-97.118;2023-05-07T06:26:18;20.00;99.90
17774;DHT22;9011;33.236;-97.118;2023-05-07T06:28:51;20.00;99.90
17774;DHT22;9011;33.236;-97.118;2023-05-07T06:31:39;20.10;99.90
17774;DHT22;9011;33.236;-97.118;2023-05-07T06:34:41;20.20;99.90
17774;DHT22;9011;33.236;-97.118;2023-05-07T06:37:11;20.20;99.90
17774;DHT22;9011;33.236;-97.118;2023-05-07T06:39:55;20.10;99.90
17774;DHT22;9011;33.236;-97.118;2023-05-07T06:42:50;20.10;99.90
17774;DHT22;9011;33.236;-97.118;2023-05-07T06:45:33;20.20;99.90
17774;DHT22;9011;33.236;-97.118;2023-05-07T06:48:05;20.30;99.90
17774;DHT22;9011;33.236;-97.118;2023-05-07T06:50:43;20.30;99.90
17774;DHT22;9011;33.236;-97.118;2023-05-07T06:53:53;20.30;99.90
17774;DHT22;9011;33.236;-97.118;2023-05-07T06:56:50;20.20;99.90
17774;DHT22;9011;33.236;-97.118;2023-05-07T06:59:19;20.20;99.90
17774;DHT22;9011;33.236;-97.118;2023-05-07T07:01:54;20.20;99.90
17774;DHT22;9011;33.236;-97.118;2023-05-07T07:04:23;20.20;99.90
17774;DHT22;9011;33.236;-97.118;2023-05-07T07:06:53;20.20;99.90
17774;DHT22;9011;33.236;-97.118;2023-05-07T07:09:28;20.20;99.90
17774;DHT22;9011;33.236;-97.118;2023-05-07T07:12:04;20.30;99.90
17774;DHT22;9011;33.236;-97.118;2023-05-07T07:28:33;20.60;99.90
17774;DHT22;9011;33.236;-97.118;2023-05-07T07:34:13;20.60;99.90
17774;DHT22;9011;33.236;-97.118;2023-05-07T07:36:44;20.70;99.90
17774;DHT22;9011;33.236;-97.118;2023-05-07T07:39:23;20.60;99.90
17774;DHT22;9011;33.236;-97.118;2023-05-07T07:45:19;20.50;99.90
17774;DHT22;9011;33.236;-97.118;2023-05-07T07:47:53;20.60;99.90
17774;DHT22;9011;33.236;-97.118;2023-05-07T07:50:34;20.60;99.90
17774;DHT22;9011;33.236;-97.118;2023-05-07T07:53:09;20.60;99.90
17774;DHT22;9011;33.236;-97.118;2023-05-07T07:55:57;20.60;99.90
17774;DHT22;9011;33.236;-97.118;2023-05-07T08:06:06;20.50;99.90
17774;DHT22;9011;33.236;-97.118;2023-05-07T08:11:50;20.50;99.90
17774;DHT22;9011;33.236;-97.118;2023-05-07T08:14:28;20.60;99.90
17774;DHT22;9011;33.236;-97.118;2023-05-07T08:17:06;20.60;99.90
17774;DHT22;9011;33.236;-97.118;2023-05-07T08:19:42;20.60;99.90
17774;DHT22;9011;33.236;-97.118;2023-05-07T08:22:55;20.70;99.90
17774;DHT22;9011;33.236;-97.118;2023-05-07T08:25:37;20.70;99.90
17774;DHT22;9011;33.236;-97.118;2023-05-07T08:28:05;20.70;99.90
17774;DHT22;9011;33.236;-97.118;2023-05-07T08:30:43;20.70;99.90
17774;DHT22;9011;33.236;-97.118;2023-05-07T08:33:34;20.70;99.90
17774;DHT22;9011;33.236;-97.118;2023-05-07T08:36:28;20.70;99.90
17774;DHT22;9011;33.236;-97.118;2023-05-07T08:41:39;20.70;99.90
17774;DHT22;9011;33.236;-97.118;2023-05-07T08:44:12;20.70;99.90
17774;DHT22;9011;33.236;-97.118;2023-05-07T08:47:39;20.70;99.90
17774;DHT22;9011;33.236;-97.118;2023-05-07T08:50:38;20.70;99.90
17774;DHT22;9011;33.236;-97.118;2023-05-07T08:57:07;20.40;99.90
17774;DHT22;9011;33.236;-97.118;2023-05-07T08:59:52;20.40;99.90
17774;DHT22;9011;33.236;-97.118;2023-05-07T09:02:29;20.30;99.90
17774;DHT22;9011;33.236;-97.118;2023-05-07T09:05:09;20.30;99.90
17774;DHT22;9011;33.236;-97.118;2023-05-07T09:07:40;20.30;99.90
17774;DHT22;9011;33.236;-97.118;2023-05-07T09:10:25;20.20;99.90
17774;DHT22;9011;33.236;-97.118;2023-05-07T09:16:46;20.10;99.90
17774;DHT22;9011;33.236;-97.118;2023-05-07T09:19:48;20.10;99.90
17774;DHT22;9011;33.236;-97.118;2023-05-07T09:22:42;20.00;99.90
17774;DHT22;9011;33.236;-97.118;2023-05-07T09:25:33;19.90;99.90
17774;DHT22;9011;33.236;-97.118;2023-05-07T09:28:07;19.90;99.90
17774;DHT22;9011;33.236;-97.118;2023-05-07T09:31:00;20.10;99.90
17774;DHT22;9011;33.236;-97.118;2023-05-07T09:33:31;20.30;99.90
17774;DHT22;9011;33.236;-97.118;2023-05-07T09:36:06;20.50;99.90
17774;DHT22;9011;33.236;-97.118;2023-05-07T09:38:46;20.60;99.90
17774;DHT22;9011;33.236;-97.118;2023-05-07T09:41:19;20.70;99.90
17774;DHT22;9011;33.236;-97.118;2023-05-07T09:44:04;20.90;99.90
17774;DHT22;9011;33.236;-97.118;2023-05-07T09:46:41;20.90;99.90
17774;DHT22;9011;33.236;-97.118;2023-05-07T09:52:39;21.00;99.90
17774;DHT22;9011;33.236;-97.118;2023-05-07T09:55:09;20.90;99.90
17774;DHT22;9011;33.236;-97.118;2023-05-07T09:57:48;21.00;99.90
17774;DHT22;9011;33.236;-97.118;2023-05-07T10:00:22;21.00;99.90
17774;DHT22;9011;33.236;-97.118;2023-05-07T10:03:14;21.00;99.90
17774;DHT22;9011;33.236;-97.118;2023-05-07T10:05:53;21.00;99.90
17774;DHT22;9011;33.236;-97.118;2023-05-07T10:08:39;21.00;99.90
17774;DHT22;9011;33.236;-97.118;2023-05-07T10:11:16;20.90;99.90
17774;DHT22;9011;33.236;-97.118;2023-05-07T10:13:46;20.90;99.90
17774;DHT22;9011;33.236;-97.118;2023-05-07T10:16:26;20.80;99.90
17774;DHT22;9011;33.236;-97.118;2023-05-07T10:19:12;20.80;99.90
17774;DHT22;9011;33.236;-97.118;2023-05-07T10:21:53;20.80;99.90
17774;DHT22;9011;33.236;-97.118;2023-05-07T10:24:30;20.80;99.90
17774;DHT22;9011;33.236;-97.118;2023-05-07T10:27:17;20.80;99.90
17774;DHT22;9011;33.236;-97.118;2023-05-07T10:29:53;20.80;99.90
17774;DHT22;9011;33.236;-97.118;2023-05-07T10:32:37;20.80;99.90
17774;DHT22;9011;33.236;-97.118;2023-05-07T10:35:19;20.80;99.90
17774;DHT22;9011;33.236;-97.118;2023-05-07T10:37:53;20.70;99.90
17774;DHT22;9011;33.236;-97.118;2023-05-07T10:40:23;20.80;99.90
17774;DHT22;9011;33.236;-97.118;2023-05-07T10:42:56;20.70;99.90
17774;DHT22;9011;33.236;-97.118;2023-05-07T10:45:26;20.60;99.90
17774;DHT22;9011;33.236;-97.118;2023-05-07T10:48:11;20.60;99.90
17774;DHT22;9011;33.236;-97.118;2023-05-07T10:50:40;20.60;99.90
17774;DHT22;9011;33.236;-97.118;2023-05-07T10:53:23;20.60;99.90
17774;DHT22;9011;33.236;-97.118;2023-05-07T10:56:27;20.60;99.90
17774;DHT22;9011;33.236;-97.118;2023-05-07T11:01:56;20.50;99.90
17774;DHT22;9011;33.236;-97.118;2023-05-07T11:04:32;20.50;99.90
17774;DHT22;9011;33.236;-97.118;2023-05-07T11:07:30;20.40;99.90
17774;DHT22;9011;33.236;-97.118;2023-05-07T11:10:03;20.40;99.90
17774;DHT22;9011;33.236;-97.118;2023-05-07T11:12:50;20.40;99.90
17774;DHT22;9011;33.236;-97.118;2023-05-07T11:15:39;20.40;99.90
17774;DHT22;9011;33.236;-97.118;2023-05-07T11:18:12;20.40;99.90
17774;DHT22;9011;33.236;-97.118;2023-05-07T11:20:54;20.40;99.90
17774;DHT22;9011;33.236;-97.118;2023-05-07T11:23:56;20.40;99.90
17774;DHT22;9011;33.236;-97.118;2023-05-07T11:26:26;20.40;99.90
17774;DHT22;9011;33.236;-97.118;2023-05-07T11:29:00;20.40;99.90
17774;DHT22;9011;33.236;-97.118;2023-05-07T11:31:28;20.40;99.90
17774;DHT22;9011;33.236;-97.118;2023-05-07T11:34:12;20.40;99.90
17774;DHT22;9011;33.236;-97.118;2023-05-07T11:36:45;20.30;99.90
17774;DHT22;9011;33.236;-97.118;2023-05-07T11:39:31;20.30;99.90
17774;DHT22;9011;33.236;-97.118;2023-05-07T11:42:05;20.30;99.90
17774;DHT22;9011;33.236;-97.118;2023-05-07T11:44:47;20.30;99.90
17774;DHT22;9011;33.236;-97.118;2023-05-07T11:47:20;20.30;99.90
17774;DHT22;9011;33.236;-97.118;2023-05-07T11:49:54;20.30;99.90
17774;DHT22;9011;33.236;-97.118;2023-05-07T11:52:28;20.30;99.90
17774;DHT22;9011;33.236;-97.118;2023-05-07T11:55:01;20.30;99.90
17774;DHT22;9011;33.236;-97.118;2023-05-07T11:57:30;20.30;99.90
17774;DHT22;9011;33.236;-97.118;2023-05-07T12:00:08;20.30;99.90
17774;DHT22;9011;33.236;-97.118;2023-05-07T12:02:50;20.30;99.90
17774;DHT22;9011;33.236;-97.118;2023-05-07T12:05:30;20.40;99.90
17774;DHT22;9011;33.236;-97.118;2023-05-07T12:07:58;20.40;99.90
17774;DHT22;9011;33.236;-97.118;2023-05-07T12:10:27;20.40;99.90
17774;DHT22;9011;33.236;-97.118;2023-05-07T12:12:56;20.50;99.90
17774;DHT22;9011;33.236;-97.118;2023-05-07T12:15:28;20.50;99.90
17774;DHT22;9011;33.236;-97.118;2023-05-07T12:17:56;20.50;99.90
17774;DHT22;9011;33.236;-97.118;2023-05-07T12:20:52;20.50;99.90
17774;DHT22;9011;33.236;-97.118;2023-05-07T12:23:20;20.60;99.90
17774;DHT22;9011;33.236;-97.118;2023-05-07T12:25:49;20.70;99.90
17774;DHT22;9011;33.236;-97.118;2023-05-07T12:28:18;20.70;99.90
17774;DHT22;9011;33.236;-97.118;2023-05-07T12:30:50;20.80;99.90
17774;DHT22;9011;33.236;-97.118;2023-05-07T12:33:18;20.80;99.90
17774;DHT22;9011;33.236;-97.118;2023-05-07T12:35:48;20.90;99.90
17774;DHT22;9011;33.236;-97.118;2023-05-07T12:38:17;20.90;99.90
17774;DHT22;9011;33.236;-97.118;2023-05-07T12:40:47;21.00;99.90
17774;DHT22;9011;33.236;-97.118;2023-05-07T12:43:17;21.00;99.90
17774;DHT22;9011;33.236;-97.118;2023-05-07T12:45:49;21.10;99.90
17774;DHT22;9011;33.236;-97.118;2023-05-07T12:48:18;21.10;99.90
17774;DHT22;9011;33.236;-97.118;2023-05-07T12:50:50;21.20;99.90
17774;DHT22;9011;33.236;-97.118;2023-05-07T12:53:20;21.30;99.90
17774;DHT22;9011;33.236;-97.118;2023-05-07T12:56:07;21.40;99.90
17774;DHT22;9011;33.236;-97.118;2023-05-07T12:58:36;21.40;99.90
17774;DHT22;9011;33.236;-97.118;2023-05-07T13:01:07;21.50;99.90
17774;DHT22;9011;33.236;-97.118;2023-05-07T13:03:38;21.60;99.90
17774;DHT22;9011;33.236;-97.118;2023-05-07T13:06:08;21.60;99.90
17774;DHT22;9011;33.236;-97.118;2023-05-07T13:08:39;21.80;99.90
17774;DHT22;9011;33.236;-97.118;2023-05-07T13:11:10;21.80;99.90
17774;DHT22;9011;33.236;-97.118;2023-05-07T13:13:39;21.90;99.90
17774;DHT22;9011;33.236;-97.118;2023-05-07T13:16:10;22.00;99.90
17774;DHT22;9011;33.236;-97.118;2023-05-07T13:18:40;22.10;99.90
17774;DHT22;9011;33.236;-97.118;2023-05-07T13:21:09;22.10;99.90
17774;DHT22;9011;33.236;-97.118;2023-05-07T13:23:39;22.10;99.90
17774;DHT22;9011;33.236;-97.118;2023-05-07T13:26:07;22.20;99.90
17774;DHT22;9011;33.236;-97.118;2023-05-07T13:28:36;22.20;99.90
17774;DHT22;9011;33.236;-97.118;2023-05-07T13:31:04;22.30;99.90
17774;DHT22;9011;33.236;-97.118;2023-05-07T13:33:34;22.30;99.90
17774;DHT22;9011;33.236;-97.118;2023-05-07T13:36:04;22.40;99.90
17774;DHT22;9011;33.236;-97.118;2023-05-07T13:38:32;22.50;99.90
17774;DHT22;9011;33.236;-97.118;2023-05-07T13:41:01;22.50;99.90
17774;DHT22;9011;33.236;-97.118;2023-05-07T13:43:29;22.70;99.90
17774;DHT22;9011;33.236;-97.118;2023-05-07T13:45:58;22.70;99.90
17774;DHT22;9011;33.236;-97.118;2023-05-07T13:48:26;22.80;99.90
17774;DHT22;9011;33.236;-97.118;2023-05-07T13:50:57;22.90;99.90
17774;DHT22;9011;33.236;-97.118;2023-05-07T13:53:25;23.00;99.90
17774;DHT22;9011;33.236;-97.118;2023-05-07T13:55:53;23.00;99.90
17774;DHT22;9011;33.236;-97.118;2023-05-07T13:58:22;23.10;99.90
17774;DHT22;9011;33.236;-97.118;2023-05-07T14:00:50;23.20;99.90
17774;DHT22;9011;33.236;-97.118;2023-05-07T14:03:18;23.30;99.90
17774;DHT22;9011;33.236;-97.118;2023-05-07T14:05:47;23.40;99.90
17774;DHT22;9011;33.236;-97.118;2023-05-07T14:08:17;23.40;99.90
17774;DHT22;9011;33.236;-97.118;2023-05-07T14:10:46;23.50;99.90
17774;DHT22;9011;33.236;-97.118;2023-05-07T14:13:14;23.60;99.90
17774;DHT22;9011;33.236;-97.118;2023-05-07T14:15:43;23.70;99.90
17774;DHT22;9011;33.236;-97.118;2023-05-07T14:18:13;23.70;99.90
17774;DHT22;9011;33.236;-97.118;2023-05-07T14:20:41;23.80;99.90
17774;DHT22;9011;33.236;-97.118;2023-05-07T14:23:12;23.90;99.90
17774;DHT22;9011;33.236;-97.118;2023-05-07T14:25:42;23.90;99.90
17774;DHT22;9011;33.236;-97.118;2023-05-07T14:28:12;23.90;99.90
17774;DHT22;9011;33.236;-97.118;2023-05-07T14:30:40;24.00;99.90
17774;DHT22;9011;33.236;-97.118;2023-05-07T14:33:09;24.10;99.90
17774;DHT22;9011;33.236;-97.118;2023-05-07T14:35:37;24.20;99.90
17774;DHT22;9011;33.236;-97.118;2023-05-07T14:38:05;24.30;99.90
17774;DHT22;9011;33.236;-97.118;2023-05-07T14:40:34;24.40;99.90
17774;DHT22;9011;33.236;-97.118;2023-05-07T14:43:04;24.40;99.90
17774;DHT22;9011;33.236;-97.118;2023-05-07T14:45:32;24.40;99.90
17774;DHT22;9011;33.236;-97.118;2023-05-07T14:48:00;24.50;99.90
17774;DHT22;9011;33.236;-97.118;2023-05-07T14:50:29;24.50;99.90
17774;DHT22;9011;33.236;-97.118;2023-05-07T14:52:57;24.60;99.90
17774;DHT22;9011;33.236;-97.118;2023-05-07T14:55:25;24.70;99.90
17774;DHT22;9011;33.236;-97.118;2023-05-07T14:57:55;24.80;99.90
17774;DHT22;9011;33.236;-97.118;2023-05-07T15:00:25;24.80;99.90
17774;DHT22;9011;33.236;-97.118;2023-05-07T15:02:54;25.00;99.90
17774;DHT22;9011;33.236;-97.118;2023-05-07T15:05:24;25.10;99.90
17774;DHT22;9011;33.236;-97.118;2023-05-07T15:07:52;25.30;99.90
17774;DHT22;9011;33.236;-97.118;2023-05-07T15:10:20;25.50;99.90
17774;DHT22;9011;33.236;-97.118;2023-05-07T15:12:49;25.50;99.90
17774;DHT22;9011;33.236;-97.118;2023-05-07T15:15:17;25.50;99.90
17774;DHT22;9011;33.236;-97.118;2023-05-07T15:17:47;25.60;99.90
17774;DHT22;9011;33.236;-97.118;2023-05-07T15:20:16;25.50;99.90
17774;DHT22;9011;33.236;-97.118;2023-05-07T15:22:44;25.60;99.90
17774;DHT22;9011;33.236;-97.118;2023-05-07T15:25:13;25.50;99.90
17774;DHT22;9011;33.236;-97.118;2023-05-07T15:27:41;25.60;99.90
17774;DHT22;9011;33.236;-97.118;2023-05-07T15:30:10;25.70;99.90
17774;DHT22;9011;33.236;-97.118;2023-05-07T15:32:39;25.80;99.90
17774;DHT22;9011;33.236;-97.118;2023-05-07T15:35:09;25.90;99.90
17774;DHT22;9011;33.236;-97.118;2023-05-07T15:37:38;25.90;99.90
17774;DHT22;9011;33.236;-97.118;2023-05-07T15:40:08;26.00;99.90
17774;DHT22;9011;33.236;-97.118;2023-05-07T15:42:37;25.90;99.90
17774;DHT22;9011;33.236;-97.118;2023-05-07T15:45:07;26.00;99.90
17774;DHT22;9011;33.236;-97.118;2023-05-07T15:47:36;26.00;99.90
17774;DHT22;9011;33.236;-97.118;2023-05-07T15:50:05;25.80;99.90
17774;DHT22;9011;33.236;-97.118;2023-05-07T15:52:35;25.80;99.90
17774;DHT22;9011;33.236;-97.118;2023-05-07T15:55:05;25.70;99.90
17774;DHT22;9011;33.236;-97.118;2023-05-07T15:57:34;25.80;99.90
17774;DHT22;9011;33.236;-97.118;2023-05-07T16:00:04;26.00;99.90
17774;DHT22;9011;33.236;-97.118;2023-05-07T16:02:37;26.20;99.90
17774;DHT22;9011;33.236;-97.118;2023-05-07T16:05:07;26.30;99.90
17774;DHT22;9011;33.236;-97.118;2023-05-07T16:07:37;26.40;99.90
17774;DHT22;9011;33.236;-97.118;2023-05-07T16:10:07;26.40;99.90
17774;DHT22;9011;33.236;-97.118;2023-05-07T16:12:36;26.70;99.90
17774;DHT22;9011;33.236;-97.118;2023-05-07T16:15:05;26.60;99.90
17774;DHT22;9011;33.236;-97.118;2023-05-07T16:17:34;26.70;99.90
17774;DHT22;9011;33.236;-97.118;2023-05-07T16:20:03;27.00;99.90
17774;DHT22;9011;33.236;-97.118;2023-05-07T16:22:31;27.00;99.90
17774;DHT22;9011;33.236;-97.118;2023-05-07T16:25:01;27.20;99.90
17774;DHT22;9011;33.236;-97.118;2023-05-07T16:27:30;27.00;99.90
17774;DHT22;9011;33.236;-97.118;2023-05-07T16:29:59;26.90;99.90
17774;DHT22;9011;33.236;-97.118;2023-05-07T16:32:28;27.00;99.90
17774;DHT22;9011;33.236;-97.118;2023-05-07T16:34:56;26.70;99.90
17774;DHT22;9011;33.236;-97.118;2023-05-07T16:37:25;26.70;99.90
17774;DHT22;9011;33.236;-97.118;2023-05-07T16:39:53;26.80;99.90
17774;DHT22;9011;33.236;-97.118;2023-05-07T16:42:23;26.70;99.90
17774;DHT22;9011;33.236;-97.118;2023-05-07T16:44:52;26.80;99.90
17774;DHT22;9011;33.236;-97.118;2023-05-07T16:47:20;26.80;99.90
17774;DHT22;9011;33.236;-97.118;2023-05-07T16:49:49;26.90;99.90
17774;DHT22;9011;33.236;-97.118;2023-05-07T16:52:17;26.90;99.90